sensor_id;sensor_type;location;lat;lon;timestamp;temperature;humidity
429;DHT22;201;48.758;9.290;2022-12-18T00:02:05;-8.00;14.80
429;DHT22;201;48.758;9.290;2022-12-18T00:04:30;-8.10;14.60
429;DHT22;201;48.758;9.290;2022-12-18T00:06:56;-8.10;14.60
429;DHT22;201;48.758;9.290;2022-12-18T00:09:21;-8.10;14.60
429;DHT22;201;48.758;9.290;2022-12-18T00:11:47;-8.10;14.60
429;DHT22;201;48.758;9.290;2022-12-18T00:14:13;-8.00;14.90
429;DHT22;201;48.758;9.290;2022-12-18T00:16:39;-8.10;14.60
429;DHT22;201;48.758;9.290;2022-12-18T00:19:06;-8.00;14.60
429;DHT22;201;48.758;9.290;2022-12-18T00:21:33;-8.00;14.60
429;DHT22;201;48.758;9.290;2022-12-18T00:23:59;-8.10;14.60
429;DHT22;201;48.758;9.290;2022-12-18T00:26:27;-8.10;14.60
429;DHT22;201;48.758;9.290;2022-12-18T00:28:53;-8.00;14.60
429;DHT22;201;48.758;9.290;2022-12-18T00:31:23;-8.10;14.60
429;DHT22;201;48.758;9.290;2022-12-18T00:33:49;-8.00;14.70
429;DHT22;201;48.758;9.290;2022-12-18T00:36:20;-8.00;14.60
429;DHT22;201;48.758;9.290;2022-12-18T00:38:46;-8.00;14.70
429;DHT22;201;48.758;9.290;2022-12-18T00:41:14;-8.10;14.60
429;DHT22;201;48.758;9.290;2022-12-18T00:43:59;-8.10;14.60
429;DHT22;201;48.758;9.290;2022-12-18T00:46:25;-8.20;14.50
429;DHT22;201;48.758;9.290;2022-12-18T00:48:51;-8.30;14.50
429;DHT22;201;48.758;9.290;2022-12-18T00:51:16;-8.30;14.40
429;DHT22;201;48.758;9.290;2022-12-18T00:53:41;-8.30;14.40
429;DHT22;201;48.758;9.290;2022-12-18T00:56:07;-8.40;14.40
429;DHT22;201;48.758;9.290;2022-12-18T00:58:32;-8.40;14.60
429;DHT22;201;48.758;9.290;2022-12-18T01:00:58;-8.40;14.80
429;DHT22;201;48.758;9.290;2022-12-18T01:03:23;-8.30;15.00
429;DHT22;201;48.758;9.290;2022-12-18T01:05:49;-8.30;14.80
429;DHT22;201;48.758;9.290;2022-12-18T01:08:14;-8.30;14.90
429;DHT22;201;48.758;9.290;2022-12-18T01:10:40;-8.30;14.70
429;DHT22;201;48.758;9.290;2022-12-18T01:13:06;-8.30;14.80
429;DHT22;201;48.758;9.290;2022-12-18T01:15:32;-8.30;14.60
429;DHT22;201;48.758;9.290;2022-12-18T01:17:57;-8.30;14.40
429;DHT22;201;48.758;9.290;2022-12-18T01:20:23;-8.40;14.40
429;DHT22;201;48.758;9.290;2022-12-18T01:22:48;-8.40;14.40
429;DHT22;201;48.758;9.290;2022-12-18T01:25:14;-8.40;14.40
429;DHT22;201;48.758;9.290;2022-12-18T01:27:40;-8.30;14.50
429;DHT22;201;48.758;9.290;2022-12-18T01:30:06;-8.30;14.40
429;DHT22;201;48.758;9.290;2022-12-18T01:32:32;-8.30;14.50
429;DHT22;201;48.758;9.290;2022-12-18T01:34:57;-8.30;14.50
429;DHT22;201;48.758;9.290;2022-12-18T01:37:23;-8.40;14.40
429;DHT22;201;48.758;9.290;2022-12-18T01:39:49;-8.40;14.40
429;DHT22;201;48.758;9.290;2022-12-18T01:42:16;-8.50;14.30
429;DHT22;201;48.758;9.290;2022-12-18T01:47:53;-8.40;14.40
429;DHT22;201;48.758;9.290;2022-12-18T01:50:21;-8.40;14.40
429;DHT22;201;48.758;9.290;2022-12-18T01:53:02;-8.50;14.30
429;DHT22;201;48.758;9.290;2022-12-18T01:55:31;-8.50;14.30
429;DHT22;201;48.758;9.290;2022-12-18T01:57:59;-8.50;14.30
429;DHT22;201;48.758;9.290;2022-12-18T02:00:26;-8.50;14.30
429;DHT22;201;48.758;9.290;2022-12-18T02:02:54;-8.50;14.30
429;DHT22;201;48.758;9.290;2022-12-18T02:05:46;-8.50;14.30
429;DHT22;201;48.758;9.290;2022-12-18T02:08:19;-8.60;14.30
429;DHT22;201;48.758;9.290;2022-12-18T02:11:05;-8.60;14.30
429;DHT22;201;48.758;9.290;2022-12-18T02:13:46;-8.60;14.30
429;DHT22;201;48.758;9.290;2022-12-18T02:18:58;-8.60;14.30
429;DHT22;201;48.758;9.290;2022-12-18T02:24:29;-8.70;14.20
429;DHT22;201;48.758;9.290;2022-12-18T02:27:04;-8.60;14.30
429;DHT22;201;48.758;9.290;2022-12-18T02:29:51;-8.60;14.30
429;DHT22;201;48.758;9.290;2022-12-18T02:32:24;-8.60;14.30
429;DHT22;201;48.758;9.290;2022-12-18T02:34:51;-8.60;14.30
429;DHT22;201;48.758;9.290;2022-12-18T02:37:18;-8.50;14.40
429;DHT22;201;48.758;9.290;2022-12-18T02:39:47;-8.60;14.30
429;DHT22;201;48.758;9.290;2022-12-18T02:42:13;-8.60;14.30
429;DHT22;201;48.758;9.290;2022-12-18T02:44:47;-8.60;14.30
429;DHT22;201;48.758;9.290;2022-12-18T02:47:14;-8.60;14.30
429;DHT22;201;48.758;9.290;2022-12-18T02:50:15;-8.70;14.20
429;DHT22;201;48.758;9.290;2022-12-18T02:52:53;-8.70;14.20
429;DHT22;201;48.758;9.290;2022-12-18T02:58:17;-8.70;14.20
429;DHT22;201;48.758;9.290;2022-12-18T03:00:53;-8.70;14.20
429;DHT22;201;48.758;9.290;2022-12-18T03:03:34;-8.70;14.20
429;DHT22;201;48.758;9.290;2022-12-18T03:06:08;-8.70;14.20
429;DHT22;201;48.758;9.290;2022-12-18T03:08:42;-8.80;14.10
429;DHT22;201;48.758;9.290;2022-12-18T03:11:11;-8.80;14.20
429;DHT22;201;48.758;9.290;2022-12-18T03:16:12;-8.90;14.00
429;DHT22;201;48.758;9.290;2022-12-18T03:18:50;-8.90;14.00
429;DHT22;201;48.758;9.290;2022-12-18T03:21:19;-8.90;14.10
429;DHT22;201;48.758;9.290;2022-12-18T03:23:49;-9.00;14.00
429;DHT22;201;48.758;9.290;2022-12-18T03:26:19;-9.00;14.00
429;DHT22;201;48.758;9.290;2022-12-18T03:28:52;-9.00;14.00
429;DHT22;201;48.758;9.290;2022-12-18T03:31:22;-9.00;14.00
429;DHT22;201;48.758;9.290;2022-12-18T03:33:54;-9.00;14.00
429;DHT22;201;48.758;9.290;2022-12-18T03:36:20;-9.00;14.00
429;DHT22;201;48.758;9.290;2022-12-18T03:38:46;-9.00;14.00
429;DHT22;201;48.758;9.290;2022-12-18T03:41:44;-8.90;14.10
429;DHT22;201;48.758;9.290;2022-12-18T03:44:26;-8.90;14.10
429;DHT22;201;48.758;9.290;2022-12-18T03:47:05;-8.90;14.10
429;DHT22;201;48.758;9.290;2022-12-18T03:49:38;-9.00;14.00
429;DHT22;201;48.758;9.290;2022-12-18T03:52:10;-9.00;14.00
429;DHT22;201;48.758;9.290;2022-12-18T03:54:39;-9.00;14.00
429;DHT22;201;48.758;9.290;2022-12-18T03:57:13;-9.00;13.80
429;DHT22;201;48.758;9.290;2022-12-18T03:59:40;-9.00;13.60
429;DHT22;201;48.758;9.290;2022-12-18T04:02:07;-9.00;13.50
429;DHT22;201;48.758;9.290;2022-12-18T04:04:35;-9.00;13.50
429;DHT22;201;48.758;9.290;2022-12-18T04:07:02;-9.00;13.50
429;DHT22;201;48.758;9.290;2022-12-18T04:09:28;-9.00;13.30
429;DHT22;201;48.758;9.290;2022-12-18T04:11:55;-9.10;13.10
429;DHT22;201;48.758;9.290;2022-12-18T04:14:20;-9.10;13.10
429;DHT22;201;48.758;9.290;2022-12-18T04:16:46;-9.10;13.10
429;DHT22;201;48.758;9.290;2022-12-18T04:19:12;-9.10;13.00
429;DHT22;201;48.758;9.290;2022-12-18T04:21:37;-9.10;12.90
429;DHT22;201;48.758;9.290;2022-12-18T04:24:03;-9.20;12.70
429;DHT22;201;48.758;9.290;2022-12-18T04:26:28;-9.20;12.60
429;DHT22;201;48.758;9.290;2022-12-18T04:28:54;-9.30;12.30
429;DHT22;201;48.758;9.290;2022-12-18T04:31:19;-9.40;11.70
429;DHT22;201;48.758;9.290;2022-12-18T04:33:45;-9.50;11.50
429;DHT22;201;48.758;9.290;2022-12-18T04:36:11;-9.60;11.30
429;DHT22;201;48.758;9.290;2022-12-18T04:38:37;-9.60;11.10
429;DHT22;201;48.758;9.290;2022-12-18T04:41:03;-9.70;10.90
429;DHT22;201;48.758;9.290;2022-12-18T04:43:28;-9.80;10.90
429;DHT22;201;48.758;9.290;2022-12-18T04:46:02;-9.80;10.90
429;DHT22;201;48.758;9.290;2022-12-18T04:48:27;-9.80;10.80
429;DHT22;201;48.758;9.290;2022-12-18T04:50:53;-9.90;10.70
429;DHT22;201;48.758;9.290;2022-12-18T04:53:18;-9.90;10.70
429;DHT22;201;48.758;9.290;2022-12-18T04:55:44;-10.00;10.60
429;DHT22;201;48.758;9.290;2022-12-18T04:58:09;-10.00;10.60
429;DHT22;201;48.758;9.290;2022-12-18T05:00:35;-10.10;10.40
429;DHT22;201;48.758;9.290;2022-12-18T05:03:01;-10.10;10.40
429;DHT22;201;48.758;9.290;2022-12-18T05:05:27;-10.20;10.10
429;DHT22;201;48.758;9.290;2022-12-18T05:07:53;-10.30;10.00
429;DHT22;201;48.758;9.290;2022-12-18T05:10:18;-10.40;9.90
429;DHT22;201;48.758;9.290;2022-12-18T05:12:44;-10.40;9.80
429;DHT22;201;48.758;9.290;2022-12-18T05:15:27;-10.50;9.90
429;DHT22;201;48.758;9.290;2022-12-18T05:17:53;-10.60;9.80
429;DHT22;201;48.758;9.290;2022-12-18T05:20:18;-10.60;9.90
429;DHT22;201;48.758;9.290;2022-12-18T05:22:44;-10.60;10.00
429;DHT22;201;48.758;9.290;2022-12-18T05:25:09;-10.70;10.00
429;DHT22;201;48.758;9.290;2022-12-18T05:27:35;-10.60;10.10
429;DHT22;201;48.758;9.290;2022-12-18T05:30:00;-10.70;10.00
429;DHT22;201;48.758;9.290;2022-12-18T05:32:26;-10.70;9.90
429;DHT22;201;48.758;9.290;2022-12-18T05:34:51;-10.70;10.00
429;DHT22;201;48.758;9.290;2022-12-18T05:37:17;-10.70;10.10
429;DHT22;201;48.758;9.290;2022-12-18T05:39:43;-10.80;9.90
429;DHT22;201;48.758;9.290;2022-12-18T05:42:08;-10.80;9.90
429;DHT22;201;48.758;9.290;2022-12-18T05:44:35;-10.90;9.80
429;DHT22;201;48.758;9.290;2022-12-18T05:47:00;-10.90;9.80
429;DHT22;201;48.758;9.290;2022-12-18T05:49:26;-10.90;9.90
429;DHT22;201;48.758;9.290;2022-12-18T05:51:51;-10.90;10.00
429;DHT22;201;48.758;9.290;2022-12-18T05:54:17;-10.90;10.00
429;DHT22;201;48.758;9.290;2022-12-18T05:56:42;-10.90;10.10
429;DHT22;201;48.758;9.290;2022-12-18T05:59:08;-10.90;10.10
429;DHT22;201;48.758;9.290;2022-12-18T06:01:35;-10.90;10.00
429;DHT22;201;48.758;9.290;2022-12-18T06:04:00;-10.90;10.10
429;DHT22;201;48.758;9.290;2022-12-18T06:06:27;-10.90;10.00
429;DHT22;201;48.758;9.290;2022-12-18T06:08:53;-11.00;10.00
429;DHT22;201;48.758;9.290;2022-12-18T06:11:22;-10.90;10.00
429;DHT22;201;48.758;9.290;2022-12-18T06:13:55;-10.90;10.10
429;DHT22;201;48.758;9.290;2022-12-18T06:16:21;-11.00;10.00
429;DHT22;201;48.758;9.290;2022-12-18T06:18:47;-11.00;10.00
429;DHT22;201;48.758;9.290;2022-12-18T06:21:12;-11.00;9.90
429;DHT22;201;48.758;9.290;2022-12-18T06:23:38;-11.00;10.00
429;DHT22;201;48.758;9.290;2022-12-18T06:26:05;-11.00;10.00
429;DHT22;201;48.758;9.290;2022-12-18T06:28:31;-11.00;9.90
429;DHT22;201;48.758;9.290;2022-12-18T06:30:57;-11.00;10.00
429;DHT22;201;48.758;9.290;2022-12-18T06:33:26;-11.00;9.90
429;DHT22;201;48.758;9.290;2022-12-18T06:35:52;-11.10;9.90
429;DHT22;201;48.758;9.290;2022-12-18T06:38:17;-11.00;10.10
429;DHT22;201;48.758;9.290;2022-12-18T06:40:43;-11.00;10.00
429;DHT22;201;48.758;9.290;2022-12-18T06:43:08;-11.00;10.10
429;DHT22;201;48.758;9.290;2022-12-18T06:45:34;-10.90;10.20
429;DHT22;201;48.758;9.290;2022-12-18T06:47:59;-10.90;10.00
429;DHT22;201;48.758;9.290;2022-12-18T06:50:25;-10.90;9.90
429;DHT22;201;48.758;9.290;2022-12-18T06:52:50;-10.90;9.80
429;DHT22;201;48.758;9.290;2022-12-18T06:55:16;-11.00;9.50
429;DHT22;201;48.758;9.290;2022-12-18T06:57:42;-11.00;9.50
429;DHT22;201;48.758;9.290;2022-12-18T07:00:07;-11.00;9.40
429;DHT22;201;48.758;9.290;2022-12-18T07:02:33;-11.10;9.20
429;DHT22;201;48.758;9.290;2022-12-18T07:04:59;-11.10;9.20
429;DHT22;201;48.758;9.290;2022-12-18T07:07:24;-11.00;9.20
429;DHT22;201;48.758;9.290;2022-12-18T07:09:50;-11.00;9.20
429;DHT22;201;48.758;9.290;2022-12-18T07:12:16;-11.10;9.10
429;DHT22;201;48.758;9.290;2022-12-18T07:14:42;-11.10;9.10
429;DHT22;201;48.758;9.290;2022-12-18T07:17:07;-11.10;8.90
429;DHT22;201;48.758;9.290;2022-12-18T07:19:33;-11.00;9.10
429;DHT22;201;48.758;9.290;2022-12-18T07:21:59;-11.00;9.10
429;DHT22;201;48.758;9.290;2022-12-18T07:24:24;-11.00;9.00
429;DHT22;201;48.758;9.290;2022-12-18T07:26:50;-11.00;9.00
429;DHT22;201;48.758;9.290;2022-12-18T07:29:16;-11.00;9.00
429;DHT22;201;48.758;9.290;2022-12-18T07:31:41;-11.00;9.00
429;DHT22;201;48.758;9.290;2022-12-18T07:34:11;-11.00;9.00
429;DHT22;201;48.758;9.290;2022-12-18T07:36:37;-10.90;9.00
429;DHT22;201;48.758;9.290;2022-12-18T07:39:02;-10.90;8.80
429;DHT22;201;48.758;9.290;2022-12-18T07:41:28;-10.90;8.60
429;DHT22;201;48.758;9.290;2022-12-18T07:43:53;-10.90;8.60
429;DHT22;201;48.758;9.290;2022-12-18T07:46:19;-10.90;8.60
429;DHT22;201;48.758;9.290;2022-12-18T07:48:45;-10.90;8.60
429;DHT22;201;48.758;9.290;2022-12-18T07:51:10;-10.90;8.60
429;DHT22;201;48.758;9.290;2022-12-18T07:53:36;-10.80;8.70
429;DHT22;201;48.758;9.290;2022-12-18T07:56:07;-10.80;8.70
429;DHT22;201;48.758;9.290;2022-12-18T07:58:34;-10.70;8.80
429;DHT22;201;48.758;9.290;2022-12-18T08:01:11;-10.70;8.70
429;DHT22;201;48.758;9.290;2022-12-18T08:03:38;-10.70;8.70
429;DHT22;201;48.758;9.290;2022-12-18T08:06:06;-10.70;8.60
429;DHT22;201;48.758;9.290;2022-12-18T08:08:33;-10.60;8.50
429;DHT22;201;48.758;9.290;2022-12-18T08:10:59;-10.60;8.30
429;DHT22;201;48.758;9.290;2022-12-18T08:13:25;-10.50;8.30
429;DHT22;201;48.758;9.290;2022-12-18T08:16:07;-10.50;8.30
429;DHT22;201;48.758;9.290;2022-12-18T08:18:33;-10.40;8.40
429;DHT22;201;48.758;9.290;2022-12-18T08:21:08;-10.30;8.00
429;DHT22;201;48.758;9.290;2022-12-18T08:23:33;-10.30;7.90
429;DHT22;201;48.758;9.290;2022-12-18T08:25:59;-10.30;7.90
429;DHT22;201;48.758;9.290;2022-12-18T08:28:24;-10.20;8.00
429;DHT22;201;48.758;9.290;2022-12-18T08:30:52;-10.20;8.00
429;DHT22;201;48.758;9.290;2022-12-18T08:33:18;-10.10;8.20
429;DHT22;201;48.758;9.290;2022-12-18T08:35:43;-10.10;8.20
429;DHT22;201;48.758;9.290;2022-12-18T08:38:09;-9.90;8.50
429;DHT22;201;48.758;9.290;2022-12-18T08:40:34;-9.80;9.00
429;DHT22;201;48.758;9.290;2022-12-18T08:43:00;-9.80;8.40
429;DHT22;201;48.758;9.290;2022-12-18T08:45:44;-9.80;8.30
429;DHT22;201;48.758;9.290;2022-12-18T08:48:09;-9.70;8.30
429;DHT22;201;48.758;9.290;2022-12-18T08:50:35;-9.60;8.40
429;DHT22;201;48.758;9.290;2022-12-18T08:53:01;-9.60;8.40
429;DHT22;201;48.758;9.290;2022-12-18T08:55:26;-9.60;8.30
429;DHT22;201;48.758;9.290;2022-12-18T08:57:52;-9.40;8.60
429;DHT22;201;48.758;9.290;2022-12-18T09:00:17;-9.40;8.70
429;DHT22;201;48.758;9.290;2022-12-18T09:02:43;-9.20;8.50
429;DHT22;201;48.758;9.290;2022-12-18T09:05:08;-9.20;8.30
429;DHT22;201;48.758;9.290;2022-12-18T09:07:35;-9.20;8.20
429;DHT22;201;48.758;9.290;2022-12-18T09:10:00;-9.20;8.30
429;DHT22;201;48.758;9.290;2022-12-18T09:12:26;-9.20;8.30
429;DHT22;201;48.758;9.290;2022-12-18T09:14:51;-9.10;8.40
429;DHT22;201;48.758;9.290;2022-12-18T09:17:17;-9.00;9.20
429;DHT22;201;48.758;9.290;2022-12-18T09:19:42;-9.00;8.80
429;DHT22;201;48.758;9.290;2022-12-18T09:22:08;-8.90;9.00
429;DHT22;201;48.758;9.290;2022-12-18T09:24:35;-8.80;9.40
429;DHT22;201;48.758;9.290;2022-12-18T09:27:00;-8.70;9.60
429;DHT22;201;48.758;9.290;2022-12-18T09:29:26;-8.50;9.80
429;DHT22;201;48.758;9.290;2022-12-18T09:31:51;-8.40;10.20
429;DHT22;201;48.758;9.290;2022-12-18T09:34:17;-8.20;10.40
429;DHT22;201;48.758;9.290;2022-12-18T09:36:42;-8.00;10.60
429;DHT22;201;48.758;9.290;2022-12-18T09:39:08;-7.90;10.70
429;DHT22;201;48.758;9.290;2022-12-18T09:46:39;-7.70;10.00
429;DHT22;201;48.758;9.290;2022-12-18T09:49:16;-7.70;9.50
429;DHT22;201;48.758;9.290;2022-12-18T09:54:42;-7.60;9.40
429;DHT22;201;48.758;9.290;2022-12-18T09:57:19;-7.60;9.10
429;DHT22;201;48.758;9.290;2022-12-18T09:59:50;-7.60;9.20
429;DHT22;201;48.758;9.290;2022-12-18T10:02:20;-7.50;9.30
429;DHT22;201;48.758;9.290;2022-12-18T10:05:02;-7.60;9.10
429;DHT22;201;48.758;9.290;2022-12-18T10:07:59;-7.60;9.10
429;DHT22;201;48.758;9.290;2022-12-18T10:15:58;-7.40;9.50
429;DHT22;201;48.758;9.290;2022-12-18T10:26:53;-6.90;9.80
429;DHT22;201;48.758;9.290;2022-12-18T10:29:21;-6.70;9.90
429;DHT22;201;48.758;9.290;2022-12-18T10:31:47;-6.70;9.60
429;DHT22;201;48.758;9.290;2022-12-18T10:34:13;-6.60;9.60
429;DHT22;201;48.758;9.290;2022-12-18T10:36:40;-6.60;8.90
429;DHT22;201;48.758;9.290;2022-12-18T10:39:21;-6.50;9.30
429;DHT22;201;48.758;9.290;2022-12-18T10:41:51;-6.40;9.60
429;DHT22;201;48.758;9.290;2022-12-18T10:44:21;-6.30;10.00
429;DHT22;201;48.758;9.290;2022-12-18T10:46:54;-6.10;9.90
429;DHT22;201;48.758;9.290;2022-12-18T10:49:22;-6.00;10.10
429;DHT22;201;48.758;9.290;2022-12-18T10:51:48;-5.80;10.10
429;DHT22;201;48.758;9.290;2022-12-18T10:54:17;-5.70;9.80
429;DHT22;201;48.758;9.290;2022-12-18T10:56:43;-5.60;9.50
429;DHT22;201;48.758;9.290;2022-12-18T10:59:12;-5.60;9.40
429;DHT22;201;48.758;9.290;2022-12-18T11:01:52;-5.40;9.80
429;DHT22;201;48.758;9.290;2022-12-18T11:07:01;-5.20;9.40
429;DHT22;201;48.758;9.290;2022-12-18T11:09:30;-5.10;9.30
429;DHT22;201;48.758;9.290;2022-12-18T11:11:59;-4.80;9.60
429;DHT22;201;48.758;9.290;2022-12-18T11:14:49;-4.70;9.40
429;DHT22;201;48.758;9.290;2022-12-18T11:17:21;-4.50;8.90
429;DHT22;201;48.758;9.290;2022-12-18T11:19:59;-4.30;9.00
429;DHT22;201;48.758;9.290;2022-12-18T11:22:26;-4.20;9.10
429;DHT22;201;48.758;9.290;2022-12-18T11:25:07;-4.20;8.70
429;DHT22;201;48.758;9.290;2022-12-18T11:27:58;-4.10;8.80
429;DHT22;201;48.758;9.290;2022-12-18T11:30:29;-4.00;8.40
429;DHT22;201;48.758;9.290;2022-12-18T11:38:26;-4.00;7.10
429;DHT22;201;48.758;9.290;2022-12-18T11:41:00;-3.90;7.20
429;DHT22;201;48.758;9.290;2022-12-18T11:46:26;-3.70;7.00
429;DHT22;201;48.758;9.290;2022-12-18T11:49:15;-3.70;6.90
429;DHT22;201;48.758;9.290;2022-12-18T11:54:16;-3.60;6.10
429;DHT22;201;48.758;9.290;2022-12-18T11:56:56;-3.50;5.90
429;DHT22;201;48.758;9.290;2022-12-18T11:59:55;-3.40;5.90
429;DHT22;201;48.758;9.290;2022-12-18T12:08:29;-3.00;5.10
429;DHT22;201;48.758;9.290;2022-12-18T12:11:10;-3.00;4.60
429;DHT22;201;48.758;9.290;2022-12-18T12:16:24;-3.00;4.30
429;DHT22;201;48.758;9.290;2022-12-18T12:21:59;-2.80;4.20
429;DHT22;201;48.758;9.290;2022-12-18T12:24:55;-2.80;3.90
429;DHT22;201;48.758;9.290;2022-12-18T12:30:45;-2.50;3.90
429;DHT22;201;48.758;9.290;2022-12-18T12:33:32;-2.50;3.30
429;DHT22;201;48.758;9.290;2022-12-18T12:38:43;-2.30;2.90
429;DHT22;201;48.758;9.290;2022-12-18T12:41:13;-2.20;3.10
429;DHT22;201;48.758;9.290;2022-12-18T12:44:01;-2.00;2.40
429;DHT22;201;48.758;9.290;2022-12-18T12:46:31;-1.90;2.10
429;DHT22;201;48.758;9.290;2022-12-18T12:49:04;-1.80;2.20
429;DHT22;201;48.758;9.290;2022-12-18T12:51:37;-1.70;2.30
429;DHT22;201;48.758;9.290;2022-12-18T12:54:09;-1.60;1.90
429;DHT22;201;48.758;9.290;2022-12-18T12:59:27;-1.60;1.00
429;DHT22;201;48.758;9.290;2022-12-18T13:01:59;-1.50;1.00
429;DHT22;201;48.758;9.290;2022-12-18T13:04:47;-1.40;1.00
429;DHT22;201;48.758;9.290;2022-12-18T13:07:19;-1.30;1.00
429;DHT22;201;48.758;9.290;2022-12-18T13:10:25;-1.10;1.00
429;DHT22;201;48.758;9.290;2022-12-18T13:13:10;-1.10;1.00
429;DHT22;201;48.758;9.290;2022-12-18T13:15:47;-1.00;1.00
429;DHT22;201;48.758;9.290;2022-12-18T13:18:17;-1.00;1.00
429;DHT22;201;48.758;9.290;2022-12-18T13:20:48;-0.90;1.00
429;DHT22;201;48.758;9.290;2022-12-18T13:28:17;-0.90;1.00
429;DHT22;201;48.758;9.290;2022-12-18T13:31:02;-0.90;1.20
429;DHT22;201;48.758;9.290;2022-12-18T13:41:43;-0.80;1.00
429;DHT22;201;48.758;9.290;2022-12-18T13:46:58;-0.80;1.00
429;DHT22;201;48.758;9.290;2022-12-18T13:49:40;-0.80;1.00
429;DHT22;201;48.758;9.290;2022-12-18T13:52:19;-0.80;1.10
429;DHT22;201;48.758;9.290;2022-12-18T13:54:56;-0.70;1.10
429;DHT22;201;48.758;9.290;2022-12-18T13:57:35;-0.70;1.00
429;DHT22;201;48.758;9.290;2022-12-18T14:02:48;-0.70;1.00
429;DHT22;201;48.758;9.290;2022-12-18T14:05:29;-0.70;1.00
429;DHT22;201;48.758;9.290;2022-12-18T14:08:08;-0.80;1.00
429;DHT22;201;48.758;9.290;2022-12-18T14:10:35;-0.90;1.20
429;DHT22;201;48.758;9.290;2022-12-18T14:13:05;-1.00;1.30
429;DHT22;201;48.758;9.290;2022-12-18T14:15:34;-1.00;1.40
429;DHT22;201;48.758;9.290;2022-12-18T14:18:19;-1.10;1.30
429;DHT22;201;48.758;9.290;2022-12-18T14:20:45;-1.20;1.50
429;DHT22;201;48.758;9.290;2022-12-18T14:23:26;-1.10;1.70
429;DHT22;201;48.758;9.290;2022-12-18T14:25:52;-1.10;1.80
429;DHT22;201;48.758;9.290;2022-12-18T14:28:18;-1.40;1.00
429;DHT22;201;48.758;9.290;2022-12-18T14:30:45;-1.50;1.20
429;DHT22;201;48.758;9.290;2022-12-18T14:33:13;-1.70;1.40
429;DHT22;201;48.758;9.290;2022-12-18T14:36:00;-1.90;2.10
429;DHT22;201;48.758;9.290;2022-12-18T14:38:37;-2.00;2.10
429;DHT22;201;48.758;9.290;2022-12-18T14:41:14;-2.10;2.00
429;DHT22;201;48.758;9.290;2022-12-18T14:43:42;-2.20;2.20
429;DHT22;201;48.758;9.290;2022-12-18T14:48:52;-2.50;3.50
429;DHT22;201;48.758;9.290;2022-12-18T14:51:23;-2.60;3.80
429;DHT22;201;48.758;9.290;2022-12-18T14:54:03;-2.70;4.20
429;DHT22;201;48.758;9.290;2022-12-18T14:56:34;-2.80;4.90
429;DHT22;201;48.758;9.290;2022-12-18T14:59:06;-2.90;5.40
429;DHT22;201;48.758;9.290;2022-12-18T15:01:44;-3.00;5.70
429;DHT22;201;48.758;9.290;2022-12-18T15:07:09;-3.20;6.30
429;DHT22;201;48.758;9.290;2022-12-18T15:09:38;-3.20;6.80
429;DHT22;201;48.758;9.290;2022-12-18T15:12:26;-3.20;7.10
429;DHT22;201;48.758;9.290;2022-12-18T15:14:53;-3.30;7.30
429;DHT22;201;48.758;9.290;2022-12-18T15:17:22;-3.30;7.60
429;DHT22;201;48.758;9.290;2022-12-18T15:19:49;-3.40;7.90
429;DHT22;201;48.758;9.290;2022-12-18T15:22:29;-3.40;8.50
429;DHT22;201;48.758;9.290;2022-12-18T15:24:56;-3.50;8.90
429;DHT22;201;48.758;9.290;2022-12-18T15:27:34;-3.60;9.50
429;DHT22;201;48.758;9.290;2022-12-18T15:30:02;-3.60;9.50
429;DHT22;201;48.758;9.290;2022-12-18T15:32:28;-3.70;10.00
429;DHT22;201;48.758;9.290;2022-12-18T15:37:40;-3.80;9.30
429;DHT22;201;48.758;9.290;2022-12-18T15:40:08;-3.80;9.40
429;DHT22;201;48.758;9.290;2022-12-18T15:42:33;-3.90;9.60
429;DHT22;201;48.758;9.290;2022-12-18T15:45:17;-3.90;9.90
429;DHT22;201;48.758;9.290;2022-12-18T15:47:43;-3.90;9.90
429;DHT22;201;48.758;9.290;2022-12-18T15:50:09;-3.90;10.00
429;DHT22;201;48.758;9.290;2022-12-18T15:52:43;-3.90;10.20
429;DHT22;201;48.758;9.290;2022-12-18T15:55:15;-3.90;10.30
429;DHT22;201;48.758;9.290;2022-12-18T15:57:59;-4.00;10.30
429;DHT22;201;48.758;9.290;2022-12-18T16:00:25;-4.00;10.40
429;DHT22;201;48.758;9.290;2022-12-18T16:02:50;-4.10;10.30
429;DHT22;201;48.758;9.290;2022-12-18T16:05:17;-4.10;10.50
429;DHT22;201;48.758;9.290;2022-12-18T16:07:44;-4.10;10.50
429;DHT22;201;48.758;9.290;2022-12-18T16:10:10;-4.20;10.50
429;DHT22;201;48.758;9.290;2022-12-18T16:12:36;-4.20;10.70
429;DHT22;201;48.758;9.290;2022-12-18T16:15:03;-4.20;10.80
429;DHT22;201;48.758;9.290;2022-12-18T16:17:29;-4.30;10.90
429;DHT22;201;48.758;9.290;2022-12-18T16:19:55;-4.30;11.60
429;DHT22;201;48.758;9.290;2022-12-18T16:22:23;-4.30;11.30
429;DHT22;201;48.758;9.290;2022-12-18T16:24:49;-4.30;11.30
429;DHT22;201;48.758;9.290;2022-12-18T16:27:15;-4.40;11.40
429;DHT22;201;48.758;9.290;2022-12-18T16:29:41;-4.30;11.70
429;DHT22;201;48.758;9.290;2022-12-18T16:32:06;-4.30;11.70
429;DHT22;201;48.758;9.290;2022-12-18T16:34:34;-4.30;11.80
429;DHT22;201;48.758;9.290;2022-12-18T16:37:05;-4.30;11.90
429;DHT22;201;48.758;9.290;2022-12-18T16:39:31;-4.40;12.00
429;DHT22;201;48.758;9.290;2022-12-18T16:41:58;-4.40;12.20
429;DHT22;201;48.758;9.290;2022-12-18T16:44:24;-4.30;12.30
429;DHT22;201;48.758;9.290;2022-12-18T16:46:49;-4.40;12.30
429;DHT22;201;48.758;9.290;2022-12-18T16:49:17;-4.40;12.30
429;DHT22;201;48.758;9.290;2022-12-18T16:51:43;-4.40;12.30
429;DHT22;201;48.758;9.290;2022-12-18T16:54:09;-4.40;12.40
429;DHT22;201;48.758;9.290;2022-12-18T16:56:34;-4.40;12.40
429;DHT22;201;48.758;9.290;2022-12-18T16:59:02;-4.40;12.40
429;DHT22;201;48.758;9.290;2022-12-18T17:01:29;-4.40;12.50
429;DHT22;201;48.758;9.290;2022-12-18T17:04:00;-4.40;12.40
429;DHT22;201;48.758;9.290;2022-12-18T17:06:27;-4.40;12.40
429;DHT22;201;48.758;9.290;2022-12-18T17:09:00;-4.40;12.40
429;DHT22;201;48.758;9.290;2022-12-18T17:11:28;-4.40;12.20
429;DHT22;201;48.758;9.290;2022-12-18T17:13:54;-4.40;12.20
429;DHT22;201;48.758;9.290;2022-12-18T17:16:20;-4.40;12.20
429;DHT22;201;48.758;9.290;2022-12-18T17:18:46;-4.40;12.30
429;DHT22;201;48.758;9.290;2022-12-18T17:21:12;-4.40;12.20
429;DHT22;201;48.758;9.290;2022-12-18T17:23:40;-4.40;12.20
429;DHT22;201;48.758;9.290;2022-12-18T17:26:06;-4.40;11.90
429;DHT22;201;48.758;9.290;2022-12-18T17:28:33;-4.40;11.90
429;DHT22;201;48.758;9.290;2022-12-18T17:30:59;-4.40;11.90
429;DHT22;201;48.758;9.290;2022-12-18T17:33:25;-4.40;11.90
429;DHT22;201;48.758;9.290;2022-12-18T17:35:51;-4.30;11.80
429;DHT22;201;48.758;9.290;2022-12-18T17:38:16;-4.40;11.60
429;DHT22;201;48.758;9.290;2022-12-18T17:40:42;-4.30;11.60
429;DHT22;201;48.758;9.290;2022-12-18T17:43:09;-4.30;11.40
429;DHT22;201;48.758;9.290;2022-12-18T17:45:36;-4.30;11.40
429;DHT22;201;48.758;9.290;2022-12-18T17:48:03;-4.30;11.30
429;DHT22;201;48.758;9.290;2022-12-18T17:50:29;-4.30;10.90
429;DHT22;201;48.758;9.290;2022-12-18T17:52:55;-4.30;10.90
429;DHT22;201;48.758;9.290;2022-12-18T17:55:21;-4.30;10.70
429;DHT22;201;48.758;9.290;2022-12-18T17:57:46;-4.20;10.90
429;DHT22;201;48.758;9.290;2022-12-18T18:00:12;-4.20;10.70
429;DHT22;201;48.758;9.290;2022-12-18T18:02:38;-4.20;10.40
429;DHT22;201;48.758;9.290;2022-12-18T18:05:04;-4.30;10.20
429;DHT22;201;48.758;9.290;2022-12-18T18:07:29;-4.20;10.20
429;DHT22;201;48.758;9.290;2022-12-18T18:09:55;-4.20;10.10
429;DHT22;201;48.758;9.290;2022-12-18T18:12:20;-4.20;10.20
429;DHT22;201;48.758;9.290;2022-12-18T18:15:05;-4.20;10.20
429;DHT22;201;48.758;9.290;2022-12-18T18:17:30;-4.20;10.10
429;DHT22;201;48.758;9.290;2022-12-18T18:19:56;-4.20;10.10
429;DHT22;201;48.758;9.290;2022-12-18T18:22:21;-4.10;10.00
429;DHT22;201;48.758;9.290;2022-12-18T18:24:47;-4.20;9.70
429;DHT22;201;48.758;9.290;2022-12-18T18:27:12;-4.10;9.90
429;DHT22;201;48.758;9.290;2022-12-18T18:29:38;-4.10;9.40
429;DHT22;201;48.758;9.290;2022-12-18T18:32:04;-4.10;9.50